createdAt,value
2018-12-19T00:00:29.878Z,95.10
2018-12-19T00:01:12.001Z,95.10
2018-12-19T00:01:51.728Z,95.10
2018-12-19T00:02:31.739Z,95.10
2018-12-19T00:03:13.788Z,95.10
2018-12-19T00:03:53.184Z,95.10
2018-12-19T00:04:32.140Z,95.20
2018-12-19T00:05:12.648Z,95.20
2018-12-19T00:05:51.184Z,95.20
2018-12-19T00:06:29.211Z,95.20
2018-12-19T00:07:08.056Z,95.20
2018-12-19T00:07:46.549Z,95.20
2018-12-19T00:08:25.067Z,95.30
2018-12-19T00:09:03.767Z,95.20
2018-12-19T00:09:46.627Z,95.20
2018-12-19T00:10:25.634Z,95.20
2018-12-19T00:11:05.108Z,95.20
2018-12-19T00:11:43.900Z,95.20
2018-12-19T00:12:22.571Z,95.20
2018-12-19T00:13:00.980Z,95.10
2018-12-19T00:13:39.683Z,95.10
2018-12-19T00:14:18.381Z,95.10
2018-12-19T00:14:57.882Z,95.10
2018-12-19T00:15:43.275Z,95.10
2018-12-19T00:16:22.863Z,95.20
2018-12-19T00:17:02.100Z,95.10
2018-12-19T00:17:41.668Z,95.20
2018-12-19T00:18:20.656Z,95.20
2018-12-19T00:18:59.241Z,95.20
2018-12-19T00:19:40.809Z,95.20
2018-12-19T00:20:19.327Z,95.20
2018-12-19T00:20:58.220Z,95.10
2018-12-19T00:21:36.892Z,95.10
2018-12-19T00:22:15.884Z,95.30
2018-12-19T00:22:54.688Z,95.10
2018-12-19T00:23:34.611Z,95.10
2018-12-19T00:24:14.173Z,95.10
2018-12-19T00:24:53.684Z,95.20
2018-12-19T00:25:32.125Z,95.30
2018-12-19T00:26:13.899Z,95.20
2018-12-19T00:26:52.374Z,95.20
2018-12-19T00:27:31.312Z,95.30
2018-12-19T00:28:13.930Z,95.30
2018-12-19T00:28:52.672Z,95.30
2018-12-19T00:29:31.500Z,95.20
2018-12-19T00:30:16.802Z,95.20
2018-12-19T00:30:55.211Z,95.20
2018-12-19T00:31:34.639Z,95.20
2018-12-19T00:32:13.542Z,95.20
2018-12-19T00:32:52.735Z,95.20
2018-12-19T00:33:30.807Z,95.20
2018-12-19T00:34:13.235Z,95.20
2018-12-19T00:34:54.328Z,95.20
2018-12-19T00:35:32.763Z,95.30
2018-12-19T00:36:11.316Z,95.30
2018-12-19T00:36:50.942Z,95.30
2018-12-19T00:37:29.454Z,95.30
2018-12-19T00:38:08.113Z,95.20
2018-12-19T00:38:47.756Z,95.20
2018-12-19T00:39:26.590Z,95.00
2018-12-19T00:40:04.693Z,95.00
2018-12-19T00:40:45.213Z,95.10
2018-12-19T00:41:24.991Z,95.00
2018-12-19T00:42:03.783Z,95.00
2018-12-19T00:42:43.379Z,95.00
2018-12-19T00:43:25.979Z,95.00
2018-12-19T00:44:05.020Z,95.00
2018-12-19T00:44:44.036Z,95.00
2018-12-19T00:45:23.401Z,95.00
2018-12-19T00:46:02.992Z,95.00
2018-12-19T00:46:43.095Z,94.90
2018-12-19T00:47:22.489Z,94.80
2018-12-19T00:48:01.305Z,94.80
2018-12-19T00:48:40.234Z,94.80
2018-12-19T00:49:18.907Z,94.80
2018-12-19T00:50:00.041Z,94.80
2018-12-19T00:50:38.927Z,94.80
2018-12-19T00:51:17.772Z,94.80
2018-12-19T00:51:57.070Z,94.90
2018-12-19T00:52:37.175Z,94.90
2018-12-19T00:53:15.764Z,94.80
2018-12-19T00:53:54.106Z,94.80
2018-12-19T00:54:33.315Z,94.70
2018-12-19T00:55:11.708Z,94.70
2018-12-19T00:55:52.020Z,94.60
2018-12-19T00:56:30.266Z,94.60
2018-12-19T00:57:10.630Z,94.60
2018-12-19T00:57:49.020Z,94.50
2018-12-19T00:58:28.114Z,94.50
2018-12-19T00:59:07.544Z,94.50
2018-12-19T00:59:45.992Z,94.40
2018-12-19T01:00:25.096Z,94.40
2018-12-19T01:01:13.525Z,94.50
2018-12-19T01:01:56.118Z,94.40
2018-12-19T01:02:34.971Z,94.40
2018-12-19T01:03:18.240Z,94.40
2018-12-19T01:03:58.813Z,94.40
2018-12-19T01:04:37.496Z,94.40
2018-12-19T01:05:16.247Z,94.40
2018-12-19T01:05:55.111Z,94.60
2018-12-19T01:06:33.368Z,94.40
2018-12-19T01:07:12.123Z,94.30
2018-12-19T01:07:50.760Z,94.20
2018-12-19T01:08:29.597Z,93.80
2018-12-19T01:09:09.145Z,94.10
2018-12-19T01:09:51.920Z,94.00
2018-12-19T01:10:30.139Z,94.00
2018-12-19T01:11:09.118Z,94.10
2018-12-19T01:11:47.731Z,94.00
2018-12-19T01:12:27.875Z,94.10
2018-12-19T01:13:07.002Z,94.00
2018-12-19T01:13:46.524Z,94.00
2018-12-19T01:14:25.685Z,94.10
2018-12-19T01:15:04.275Z,94.00
2018-12-19T01:15:43.088Z,94.00
2018-12-19T01:16:24.270Z,94.00
2018-12-19T01:17:02.685Z,94.10
2018-12-19T01:17:41.343Z,94.30
2018-12-19T01:18:22.694Z,94.50
2018-12-19T01:19:05.059Z,94.50
2018-12-19T01:19:44.463Z,94.50
2018-12-19T01:20:23.136Z,94.50
2018-12-19T01:21:03.914Z,94.60
2018-12-19T01:21:42.488Z,94.70
2018-12-19T01:22:20.705Z,94.70
2018-12-19T01:23:02.368Z,94.80
2018-12-19T01:23:41.072Z,94.70
2018-12-19T01:24:19.969Z,94.70
2018-12-19T01:24:59.670Z,94.70
2018-12-19T01:25:38.346Z,94.60
2018-12-19T01:26:16.732Z,94.70
2018-12-19T01:26:55.483Z,94.80
2018-12-19T01:27:34.024Z,94.80
2018-12-19T01:28:12.608Z,94.80
2018-12-19T01:28:52.290Z,94.80
2018-12-19T01:29:32.520Z,94.80
2018-12-19T01:30:12.170Z,94.90
2018-12-19T01:30:52.585Z,95.00
2018-12-19T01:31:35.322Z,95.00
2018-12-19T01:32:15.012Z,95.20
2018-12-19T01:32:54.100Z,94.60
2018-12-19T01:33:37.072Z,94.50
2018-12-19T01:34:15.468Z,94.30
2018-12-19T01:34:54.174Z,94.20
2018-12-19T01:35:34.982Z,94.20
2018-12-19T01:36:14.160Z,93.90
2018-12-19T01:36:52.759Z,94.10
2018-12-19T01:37:31.476Z,94.10
2018-12-19T01:38:09.952Z,94.20
2018-12-19T01:38:48.684Z,94.40
2018-12-19T01:39:28.092Z,94.10
2018-12-19T01:40:10.543Z,94.50
2018-12-19T01:40:48.740Z,94.20
2018-12-19T01:41:29.978Z,94.20
2018-12-19T01:42:08.860Z,94.20
2018-12-19T01:42:47.632Z,94.20
2018-12-19T01:43:27.513Z,94.20
2018-12-19T01:44:06.206Z,94.20
2018-12-19T01:44:49.150Z,94.40
2018-12-19T01:45:28.496Z,94.10
2018-12-19T01:46:08.075Z,94.20
2018-12-19T01:46:47.041Z,94.20
2018-12-19T01:47:25.759Z,94.30
2018-12-19T01:48:04.644Z,94.40
2018-12-19T01:48:43.264Z,94.30
2018-12-19T01:49:21.892Z,94.30
2018-12-19T01:50:01.879Z,94.40
2018-12-19T01:50:41.553Z,94.50
2018-12-19T01:51:20.212Z,94.70
2018-12-19T01:51:58.437Z,94.80
2018-12-19T01:52:40.564Z,94.80
2018-12-19T01:53:18.840Z,94.90
2018-12-19T01:53:59.499Z,95.10
2018-12-19T01:54:38.440Z,95.20
2018-12-19T01:55:16.892Z,95.30
2018-12-19T01:55:55.747Z,95.50
2018-12-19T01:56:39.073Z,95.50
2018-12-19T01:57:17.437Z,95.60
2018-12-19T01:57:55.573Z,95.70
2018-12-19T01:58:34.472Z,95.70
2018-12-19T01:59:16.424Z,95.70
2018-12-19T01:59:54.987Z,95.80
2018-12-19T02:00:35.204Z,95.80
2018-12-19T02:01:14.530Z,95.70
2018-12-19T02:01:54.121Z,95.90
2018-12-19T02:02:33.355Z,95.70
2018-12-19T02:03:11.561Z,95.60
2018-12-19T02:03:50.752Z,95.60
2018-12-19T02:04:29.075Z,95.30
2018-12-19T02:05:12.892Z,95.60
2018-12-19T02:05:51.712Z,95.50
2018-12-19T02:06:31.012Z,95.50
2018-12-19T02:07:09.823Z,95.40
2018-12-19T02:07:48.352Z,95.40
2018-12-19T02:08:29.568Z,95.30
2018-12-19T02:09:09.154Z,95.50
2018-12-19T02:09:49.892Z,95.30
2018-12-19T02:10:28.019Z,95.30
2018-12-19T02:11:11.232Z,95.30
2018-12-19T02:11:49.782Z,95.20
2018-12-19T02:12:28.861Z,95.20
2018-12-19T02:13:07.446Z,95.30
2018-12-19T02:13:49.519Z,95.30
2018-12-19T02:14:28.367Z,95.40
2018-12-19T02:15:08.413Z,95.40
2018-12-19T02:15:46.442Z,95.50
2018-12-19T02:16:26.712Z,95.50
2018-12-19T02:17:05.813Z,95.40
2018-12-19T02:17:46.816Z,95.30
2018-12-19T02:18:25.307Z,95.30
2018-12-19T02:19:03.891Z,95.40
2018-12-19T02:19:43.548Z,95.40
2018-12-19T02:20:22.120Z,95.50
2018-12-19T02:21:01.412Z,95.50
2018-12-19T02:21:40.810Z,95.80
2018-12-19T02:22:19.280Z,95.40
2018-12-19T02:22:58.927Z,95.30
2018-12-19T02:23:37.891Z,95.50
2018-12-19T02:24:19.213Z,95.50
2018-12-19T02:24:58.178Z,95.60
2018-12-19T02:25:37.161Z,95.50
2018-12-19T02:26:17.124Z,95.50
2018-12-19T02:26:55.907Z,95.50
2018-12-19T02:27:34.534Z,95.40
2018-12-19T02:28:13.347Z,95.40
2018-12-19T02:28:52.856Z,95.50
2018-12-19T02:29:31.563Z,95.40
2018-12-19T02:30:10.752Z,95.50
2018-12-19T02:30:49.634Z,95.40
2018-12-19T02:31:28.417Z,95.50
2018-12-19T02:32:11.440Z,95.50
2018-12-19T02:32:54.023Z,95.40
2018-12-19T02:33:35.075Z,95.50
2018-12-19T02:34:13.687Z,95.30
2018-12-19T02:34:52.459Z,95.30
2018-12-19T02:35:31.359Z,95.30
2018-12-19T02:36:10.202Z,95.20
2018-12-19T02:36:49.118Z,95.10
2018-12-19T02:37:31.541Z,95.10
2018-12-19T02:38:10.352Z,95.10
2018-12-19T02:38:49.702Z,95.10
2018-12-19T02:39:28.100Z,95.10
2018-12-19T02:40:11.007Z,95.00
2018-12-19T02:40:49.724Z,94.90
2018-12-19T02:41:29.105Z,95.00
2018-12-19T02:42:11.627Z,95.10
2018-12-19T02:42:51.346Z,95.60
2018-12-19T02:43:31.445Z,95.70
2018-12-19T02:44:11.803Z,95.60
2018-12-19T02:44:50.079Z,95.60
2018-12-19T02:45:28.872Z,95.50
2018-12-19T02:46:07.431Z,95.50
2018-12-19T02:46:45.862Z,95.30
2018-12-19T02:47:24.632Z,95.40
2018-12-19T02:48:03.224Z,95.40
2018-12-19T02:48:46.283Z,95.40
2018-12-19T02:49:25.211Z,95.60
2018-12-19T02:50:04.987Z,95.50
2018-12-19T02:50:45.110Z,95.50
2018-12-19T02:51:24.416Z,95.60
2018-12-19T02:52:04.336Z,95.40
2018-12-19T02:52:43.090Z,95.40
2018-12-19T02:53:21.930Z,95.60
2018-12-19T02:54:02.297Z,95.50
2018-12-19T02:54:40.943Z,95.60
2018-12-19T02:55:21.590Z,95.50
2018-12-19T02:56:00.360Z,95.60
2018-12-19T02:56:40.302Z,95.60
2018-12-19T02:57:22.117Z,96.00
2018-12-19T02:58:01.161Z,95.80
2018-12-19T02:58:40.695Z,95.70
2018-12-19T02:59:20.348Z,95.50
2018-12-19T02:59:59.311Z,95.80
2018-12-19T03:00:38.625Z,95.60
2018-12-19T03:01:19.022Z,95.70
2018-12-19T03:01:57.853Z,95.50
2018-12-19T03:02:36.687Z,95.80
2018-12-19T03:03:19.660Z,95.70
2018-12-19T03:03:58.701Z,95.70
2018-12-19T03:04:38.656Z,95.80
2018-12-19T03:05:18.475Z,95.80
2018-12-19T03:05:57.362Z,95.70
2018-12-19T03:06:36.256Z,95.70
2018-12-19T03:07:15.548Z,95.60
2018-12-19T03:07:53.987Z,95.60
2018-12-19T03:08:36.326Z,95.50
2018-12-19T03:09:15.556Z,95.60
2018-12-19T03:09:59.187Z,95.40
2018-12-19T03:10:40.970Z,95.50
2018-12-19T03:11:19.702Z,95.60
2018-12-19T03:11:58.238Z,95.60
2018-12-19T03:12:39.859Z,95.50
2018-12-19T03:13:18.247Z,95.50
2018-12-19T03:13:57.707Z,95.40
2018-12-19T03:14:38.962Z,95.40
2018-12-19T03:15:17.734Z,95.40
2018-12-19T03:15:56.205Z,95.30
2018-12-19T03:16:34.886Z,95.50
2018-12-19T03:17:16.242Z,95.50
2018-12-19T03:18:00.645Z,95.50
2018-12-19T03:18:39.334Z,95.50
2018-12-19T03:19:18.264Z,95.50
2018-12-19T03:19:59.693Z,95.50
2018-12-19T03:20:37.963Z,95.40
2018-12-19T03:21:16.503Z,95.50
2018-12-19T03:21:55.034Z,95.60
2018-12-19T03:22:37.998Z,95.60
2018-12-19T03:23:17.636Z,95.50
2018-12-19T03:23:55.930Z,95.70
2018-12-19T03:24:34.424Z,96.00
2018-12-19T03:25:12.991Z,95.90
2018-12-19T03:25:53.308Z,95.90
2018-12-19T03:26:38.074Z,96.10
2018-12-19T03:27:16.483Z,96.20
2018-12-19T03:27:54.928Z,95.90
2018-12-19T03:28:33.583Z,96.00
2018-12-19T03:29:12.400Z,96.00
2018-12-19T03:29:51.103Z,96.00
2018-12-19T03:30:29.919Z,96.20
2018-12-19T03:31:08.830Z,95.80
2018-12-19T03:31:47.401Z,95.80
2018-12-19T03:32:26.352Z,95.80
2018-12-19T03:33:04.809Z,96.00
2018-12-19T03:33:44.249Z,95.90
2018-12-19T03:34:22.902Z,95.80
2018-12-19T03:35:03.507Z,95.90
2018-12-19T03:35:42.044Z,96.30
2018-12-19T03:36:20.640Z,96.10
2018-12-19T03:37:03.607Z,96.20
2018-12-19T03:37:43.550Z,96.00
2018-12-19T03:38:26.422Z,96.10
2018-12-19T03:39:05.387Z,96.00
2018-12-19T03:39:50.289Z,96.20
2018-12-19T03:40:25.666Z,96.20
2018-12-19T03:41:04.249Z,96.10
2018-12-19T03:41:45.636Z,96.20
2018-12-19T03:42:26.346Z,96.10
2018-12-19T03:43:04.531Z,95.90
2018-12-19T03:43:42.932Z,95.60
2018-12-19T03:44:24.832Z,95.50
2018-12-19T03:45:03.124Z,95.50
2018-12-19T03:45:41.585Z,95.70
2018-12-19T03:46:20.121Z,95.80
2018-12-19T03:46:58.764Z,95.90
2018-12-19T03:47:37.787Z,95.80
2018-12-19T03:48:20.923Z,95.90
2018-12-19T03:49:01.415Z,95.90
2018-12-19T03:49:42.077Z,95.90
2018-12-19T03:50:20.388Z,96.00
2018-12-19T03:50:59.836Z,96.00
2018-12-19T03:51:38.480Z,95.90
2018-12-19T03:52:16.776Z,96.00
2018-12-19T03:52:56.669Z,96.00
2018-12-19T03:53:35.912Z,96.30
2018-12-19T03:54:15.236Z,95.90
2018-12-19T03:54:53.609Z,95.80
2018-12-19T03:55:32.357Z,95.90
2018-12-19T03:56:12.377Z,95.90
2018-12-19T03:56:51.273Z,96.00
2018-12-19T03:57:30.958Z,95.90
2018-12-19T03:58:09.783Z,96.20
2018-12-19T03:58:48.974Z,96.00
2018-12-19T03:59:32.329Z,96.00
2018-12-19T04:00:13.981Z,95.90
2018-12-19T04:00:52.804Z,96.10
2018-12-19T04:01:31.362Z,96.10
2018-12-19T04:02:11.887Z,96.20
2018-12-19T04:02:50.148Z,96.20
2018-12-19T04:03:30.120Z,96.20
2018-12-19T04:04:09.424Z,96.10
2018-12-19T04:04:49.055Z,96.20
2018-12-19T04:05:27.813Z,96.40
2018-12-19T04:06:06.028Z,96.30
2018-12-19T04:06:54.183Z,96.50
2018-12-19T04:07:33.299Z,96.50
2018-12-19T04:08:12.352Z,96.40
2018-12-19T04:08:53.803Z,96.50
2018-12-19T04:09:32.330Z,96.60
2018-12-19T04:10:10.739Z,96.50
2018-12-19T04:10:53.692Z,96.40
2018-12-19T04:11:32.517Z,96.80
2018-12-19T04:12:11.147Z,96.30
2018-12-19T04:12:49.905Z,96.00
2018-12-19T04:13:29.679Z,96.10
2018-12-19T04:14:07.846Z,96.20
2018-12-19T04:14:49.064Z,96.10
2018-12-19T04:15:27.039Z,96.10
2018-12-19T04:16:05.577Z,96.30
2018-12-19T04:16:45.799Z,96.20
2018-12-19T04:17:24.368Z,96.10
2018-12-19T04:18:03.916Z,96.10
2018-12-19T04:18:42.616Z,96.10
2018-12-19T04:19:22.167Z,96.00
2018-12-19T04:20:00.969Z,96.10
2018-12-19T04:20:39.553Z,96.30
2018-12-19T04:21:19.493Z,96.00
2018-12-19T04:21:59.696Z,96.00
2018-12-19T04:22:38.476Z,96.00
2018-12-19T04:23:17.469Z,96.10
2018-12-19T04:23:55.763Z,96.00
2018-12-19T04:24:38.399Z,96.00
2018-12-19T04:25:16.823Z,96.10
2018-12-19T04:25:55.269Z,96.00
2018-12-19T04:26:35.164Z,95.90
2018-12-19T04:27:13.749Z,96.00
2018-12-19T04:27:53.420Z,96.00
2018-12-19T04:28:31.944Z,95.90
2018-12-19T04:29:14.207Z,95.90
2018-12-19T04:29:52.944Z,95.90
2018-12-19T04:30:31.748Z,95.90
2018-12-19T04:31:10.483Z,95.90
2018-12-19T04:31:49.887Z,95.90
2018-12-19T04:32:28.383Z,95.80
2018-12-19T04:33:11.528Z,95.80
2018-12-19T04:33:49.925Z,95.80
2018-12-19T04:34:29.257Z,95.80
2018-12-19T04:35:12.581Z,95.70
2018-12-19T04:35:53.546Z,95.70
2018-12-19T04:36:33.352Z,95.70
2018-12-19T04:37:13.219Z,95.60
2018-12-19T04:37:52.962Z,95.60
2018-12-19T04:38:32.447Z,95.30
2018-12-19T04:39:12.469Z,95.40
2018-12-19T04:39:53.061Z,95.40
2018-12-19T04:40:31.439Z,95.40
2018-12-19T04:41:10.354Z,95.30
2018-12-19T04:41:50.263Z,95.30
2018-12-19T04:42:29.104Z,95.30
2018-12-19T04:43:07.383Z,95.30
2018-12-19T04:43:52.571Z,95.50
2018-12-19T04:44:31.741Z,95.40
2018-12-19T04:45:10.696Z,95.50
2018-12-19T04:45:50.822Z,95.40
2018-12-19T04:46:31.455Z,95.40
2018-12-19T04:47:10.214Z,95.40
2018-12-19T04:47:48.808Z,95.30
2018-12-19T04:48:27.053Z,95.20
2018-12-19T04:49:05.168Z,95.20
2018-12-19T04:49:45.233Z,95.30
2018-12-19T04:50:28.111Z,95.10
2018-12-19T04:51:06.884Z,95.10
2018-12-19T04:51:45.431Z,95.00
2018-12-19T04:52:24.150Z,95.00
2018-12-19T04:53:02.476Z,95.10
2018-12-19T04:53:40.952Z,95.10
2018-12-19T04:54:19.509Z,94.80
2018-12-19T04:54:57.851Z,95.10
2018-12-19T04:55:36.597Z,95.00
2018-12-19T04:56:19.317Z,95.10
2018-12-19T04:56:59.223Z,95.00
2018-12-19T04:57:38.543Z,95.00
2018-12-19T04:58:17.229Z,95.10
2018-12-19T04:58:57.863Z,95.00
2018-12-19T04:59:36.511Z,95.00
2018-12-19T05:00:14.906Z,94.90
2018-12-19T05:00:57.340Z,94.70
2018-12-19T05:01:35.812Z,94.80
2018-12-19T05:02:14.951Z,94.00
2018-12-19T05:02:53.989Z,93.70
2018-12-19T05:03:33.937Z,94.00
2018-12-19T05:04:12.341Z,94.20
2018-12-19T05:04:52.451Z,94.10
2018-12-19T05:05:31.954Z,94.10
2018-12-19T05:06:10.375Z,94.10
2018-12-19T05:06:49.844Z,93.90
2018-12-19T05:07:33.790Z,93.90
2018-12-19T05:08:17.007Z,93.90
2018-12-19T05:08:55.863Z,93.90
2018-12-19T05:10:18.300Z,93.80
2018-12-19T05:10:56.943Z,93.90
2018-12-19T05:11:35.677Z,93.90
2018-12-19T05:12:14.344Z,93.80
2018-12-19T05:12:53.187Z,93.80
2018-12-19T05:13:31.367Z,93.60
2018-12-19T05:14:10.164Z,93.90
2018-12-19T05:14:48.845Z,93.50
2018-12-19T05:15:27.665Z,93.50
2018-12-19T05:16:06.464Z,93.60
2018-12-19T05:16:53.963Z,93.70
2018-12-19T05:17:32.489Z,93.80
2018-12-19T05:18:11.036Z,93.80
2018-12-19T05:18:50.276Z,93.80
2018-12-19T05:19:29.231Z,93.80
2018-12-19T05:20:08.032Z,93.80
2018-12-19T05:20:52.854Z,93.80
2018-12-19T05:21:31.460Z,93.90
2018-12-19T05:22:10.068Z,93.90
2018-12-19T05:22:48.586Z,93.80
2018-12-19T05:23:27.492Z,93.80
2018-12-19T05:24:06.359Z,93.80
2018-12-19T05:24:45.483Z,93.60
2018-12-19T05:25:24.108Z,93.60
2018-12-19T05:26:02.559Z,93.40
2018-12-19T05:26:40.916Z,93.40
2018-12-19T05:27:23.301Z,93.50
2018-12-19T05:28:02.912Z,93.70
2018-12-19T05:28:41.711Z,93.70
2018-12-19T05:29:22.501Z,94.00
2018-12-19T05:30:02.619Z,93.80
2018-12-19T05:30:40.959Z,93.70
2018-12-19T05:31:19.111Z,93.50
2018-12-19T05:31:58.732Z,93.50
2018-12-19T05:32:37.684Z,93.20
2018-12-19T05:33:18.991Z,93.20
2018-12-19T05:34:02.407Z,93.20
2018-12-19T05:34:41.415Z,93.10
2018-12-19T05:35:23.895Z,93.00
2018-12-19T05:36:02.561Z,93.10
2018-12-19T05:36:40.707Z,93.20
2018-12-19T05:37:19.516Z,93.00
2018-12-19T05:37:59.001Z,93.00
2018-12-19T05:38:37.508Z,93.10
2018-12-19T05:39:18.251Z,93.40
2018-12-19T05:39:58.347Z,93.40
2018-12-19T05:40:40.726Z,93.50
2018-12-19T05:41:20.450Z,93.60
2018-12-19T05:41:59.080Z,93.80
2018-12-19T05:42:39.215Z,93.90
2018-12-19T05:43:17.520Z,93.80
2018-12-19T05:43:56.486Z,93.80
2018-12-19T05:44:39.250Z,93.90
2018-12-19T05:45:18.112Z,94.00
2018-12-19T05:45:56.897Z,93.70
2018-12-19T05:46:35.712Z,93.80
2018-12-19T05:47:14.356Z,93.80
2018-12-19T05:47:52.957Z,93.80
2018-12-19T05:48:31.329Z,93.80
2018-12-19T05:49:09.840Z,93.80
2018-12-19T05:49:48.791Z,93.80
2018-12-19T05:50:30.209Z,94.00
2018-12-19T05:51:10.430Z,94.00
2018-12-19T05:51:48.961Z,94.10
2018-12-19T05:52:29.109Z,94.00
2018-12-19T05:53:08.115Z,94.10
2018-12-19T05:53:48.954Z,94.20
2018-12-19T05:54:27.494Z,94.20
2018-12-19T05:55:06.773Z,94.10
2018-12-19T05:55:51.272Z,94.10
2018-12-19T05:56:29.680Z,94.10
2018-12-19T05:57:08.057Z,94.20
2018-12-19T05:57:46.820Z,94.20
2018-12-19T05:58:26.005Z,94.30
2018-12-19T05:59:04.883Z,94.30
2018-12-19T05:59:43.973Z,94.20
2018-12-19T06:00:22.732Z,94.60
2018-12-19T06:01:01.364Z,94.30
2018-12-19T06:01:43.947Z,94.30
2018-12-19T06:02:22.846Z,94.30
2018-12-19T06:03:01.166Z,94.40
2018-12-19T06:03:40.987Z,94.30
2018-12-19T06:04:19.864Z,94.30
2018-12-19T06:05:00.198Z,94.30
2018-12-19T06:05:38.754Z,94.30
2018-12-19T06:06:17.504Z,94.40
2018-12-19T06:07:00.913Z,94.40
2018-12-19T06:07:40.125Z,94.40
2018-12-19T06:08:18.860Z,94.40
2018-12-19T06:08:57.182Z,94.30
2018-12-19T06:09:36.639Z,94.20
2018-12-19T06:10:15.681Z,94.30
2018-12-19T06:10:55.010Z,94.20
2018-12-19T06:11:36.360Z,94.20
2018-12-19T06:12:15.818Z,94.20
2018-12-19T06:12:56.054Z,94.20
2018-12-19T06:13:38.543Z,94.40
2018-12-19T06:14:21.924Z,94.10
2018-12-19T06:15:01.235Z,94.10
2018-12-19T06:15:40.816Z,94.20
2018-12-19T06:16:20.167Z,94.20
2018-12-19T06:16:59.525Z,94.20
2018-12-19T06:17:41.406Z,94.20
2018-12-19T06:18:21.346Z,94.20
2018-12-19T06:19:05.340Z,94.10
2018-12-19T06:19:45.455Z,94.10
2018-12-19T06:20:24.942Z,94.20
2018-12-19T06:21:08.330Z,94.10
2018-12-19T06:21:48.000Z,93.90
2018-12-19T06:22:27.116Z,94.00
2018-12-19T06:23:07.860Z,94.00
2018-12-19T06:23:50.324Z,94.00
2018-12-19T06:24:29.701Z,94.00
2018-12-19T06:25:09.029Z,93.40
2018-12-19T06:25:49.703Z,93.50
2018-12-19T06:26:33.227Z,93.60
2018-12-19T06:27:12.687Z,93.70
2018-12-19T06:27:52.848Z,93.60
2018-12-19T06:28:37.084Z,93.70
2018-12-19T06:29:15.762Z,93.60
2018-12-19T06:29:57.126Z,93.60
2018-12-19T06:30:38.290Z,93.70
2018-12-19T06:31:18.557Z,94.00
2018-12-19T06:31:58.140Z,93.70
2018-12-19T06:32:39.403Z,93.50
2018-12-19T06:33:21.778Z,93.40
2018-12-19T06:34:03.120Z,93.50
2018-12-19T06:35:26.313Z,93.70
2018-12-19T06:36:06.488Z,93.80
2018-12-19T06:36:45.968Z,93.70
2018-12-19T06:37:26.339Z,93.70
2018-12-19T06:38:07.528Z,93.70
2018-12-19T06:38:47.059Z,93.70
2018-12-19T06:39:26.647Z,93.50
2018-12-19T06:40:05.983Z,93.50
2018-12-19T06:40:45.252Z,93.60
2018-12-19T06:41:26.525Z,93.60
2018-12-19T06:42:06.516Z,93.50
2018-12-19T06:42:50.698Z,93.60
2018-12-19T06:43:33.770Z,93.60
2018-12-19T06:44:16.424Z,93.30
2018-12-19T06:44:57.235Z,93.10
2018-12-19T06:45:39.524Z,93.10
2018-12-19T06:46:18.740Z,93.30
2018-12-19T06:46:58.522Z,93.20
2018-12-19T06:47:39.098Z,93.30
2018-12-19T06:48:23.895Z,93.40
2018-12-19T06:49:03.388Z,93.50
2018-12-19T06:49:42.999Z,93.50
2018-12-19T06:50:22.350Z,93.50
2018-12-19T06:51:01.674Z,93.50
2018-12-19T06:51:41.252Z,93.50
2018-12-19T06:52:21.430Z,93.50
2018-12-19T06:53:02.658Z,93.40
2018-12-19T06:53:42.319Z,93.40
2018-12-19T06:54:21.875Z,93.40
2018-12-19T06:55:02.470Z,93.40
2018-12-19T06:55:41.827Z,93.50
2018-12-19T06:56:21.787Z,93.40
2018-12-19T06:57:01.194Z,93.50
2018-12-19T06:57:42.040Z,93.50
2018-12-19T06:58:23.620Z,93.50
2018-12-19T06:59:02.628Z,93.40
2018-12-19T06:59:45.588Z,93.40
2018-12-19T07:00:24.881Z,93.40
2018-12-19T07:01:03.801Z,93.50
2018-12-19T07:01:43.280Z,93.50
2018-12-19T07:02:25.424Z,93.50
2018-12-19T07:03:05.837Z,93.50
2018-12-19T07:03:45.094Z,93.70
2018-12-19T07:04:25.465Z,93.30
2018-12-19T07:05:11.831Z,93.40
2018-12-19T07:05:53.163Z,93.40
2018-12-19T07:06:34.191Z,93.40
2018-12-19T07:07:16.802Z,93.40
2018-12-19T07:07:55.932Z,93.40
2018-12-19T07:08:35.171Z,93.50
2018-12-19T07:09:15.655Z,93.50
2018-12-19T07:09:58.845Z,93.30
2018-12-19T07:10:39.196Z,93.30
2018-12-19T07:11:19.695Z,93.30
2018-12-19T07:11:58.991Z,92.90
2018-12-19T07:12:38.616Z,93.00
2018-12-19T07:13:17.945Z,92.80
2018-12-19T07:13:57.194Z,92.80
2018-12-19T07:14:40.176Z,92.80
2018-12-19T07:15:21.089Z,92.90
2018-12-19T07:16:01.492Z,93.20
2018-12-19T07:16:43.414Z,92.90
2018-12-19T07:17:25.344Z,92.70
2018-12-19T07:18:05.353Z,92.40
2018-12-19T07:18:48.844Z,92.50
2018-12-19T07:19:29.078Z,92.30
2018-12-19T07:20:08.011Z,92.30
2018-12-19T07:20:48.406Z,92.40
2018-12-19T07:21:27.546Z,92.50
2018-12-19T07:22:14.234Z,92.50
2018-12-19T07:22:57.294Z,92.50
2018-12-19T07:23:39.085Z,92.50
2018-12-19T07:24:18.878Z,92.60
2018-12-19T07:24:59.399Z,92.70
2018-12-19T07:25:40.762Z,92.70
2018-12-19T07:26:21.610Z,92.70
2018-12-19T07:27:01.541Z,92.70
2018-12-19T07:27:44.452Z,92.70
2018-12-19T07:28:24.939Z,92.80
2018-12-19T07:29:05.006Z,92.70
2018-12-19T07:29:47.524Z,92.70
2018-12-19T07:30:32.490Z,92.80
2018-12-19T07:31:12.566Z,93.10
2018-12-19T07:31:54.479Z,93.20
2018-12-19T07:32:36.085Z,92.80
2018-12-19T07:33:17.935Z,92.90
2018-12-19T07:34:06.784Z,93.30
2018-12-19T07:34:47.675Z,92.90
2018-12-19T07:35:28.407Z,92.90
2018-12-19T07:36:11.646Z,92.90
2018-12-19T07:36:52.257Z,92.90
2018-12-19T07:37:32.538Z,92.90
2018-12-19T07:38:12.779Z,92.80
2018-12-19T07:38:54.511Z,92.90
2018-12-19T07:40:19.503Z,92.90
2018-12-19T07:41:01.277Z,92.80
2018-12-19T07:41:41.770Z,92.80
2018-12-19T07:42:21.226Z,92.80
2018-12-19T07:43:00.989Z,92.80
2018-12-19T07:43:41.014Z,92.80
2018-12-19T07:44:21.536Z,92.90
2018-12-19T07:45:02.722Z,93.00
2018-12-19T07:45:41.936Z,92.90
2018-12-19T07:46:21.896Z,92.90
2018-12-19T07:47:01.272Z,92.80
2018-12-19T07:47:47.371Z,92.80
2018-12-19T07:48:26.631Z,92.80
2018-12-19T07:49:06.171Z,92.80
2018-12-19T07:49:46.699Z,92.50
2018-12-19T07:50:28.839Z,92.60
2018-12-19T07:51:17.508Z,92.50
2018-12-19T07:51:57.445Z,92.60
2018-12-19T07:52:37.981Z,92.60
2018-12-19T07:53:17.178Z,92.70
2018-12-19T07:53:58.463Z,92.70
2018-12-19T07:54:38.291Z,92.60
2018-12-19T07:55:19.227Z,92.60
2018-12-19T07:56:00.040Z,92.50
2018-12-19T07:56:42.202Z,92.60
2018-12-19T07:57:24.571Z,92.60
2018-12-19T07:58:06.661Z,92.40
2018-12-19T07:58:47.824Z,92.40
2018-12-19T07:59:32.166Z,92.50
2018-12-19T08:00:11.518Z,92.20
2018-12-19T08:00:51.847Z,92.30
2018-12-19T08:01:31.926Z,92.30
2018-12-19T08:02:12.926Z,92.30
2018-12-19T08:02:53.415Z,92.30
2018-12-19T08:03:34.296Z,92.30
2018-12-19T08:04:16.265Z,92.20
2018-12-19T08:04:56.607Z,92.10
2018-12-19T08:06:22.711Z,92.10
2018-12-19T08:07:05.093Z,92.20
2018-12-19T08:07:44.302Z,92.20
2018-12-19T08:08:26.449Z,91.70
2018-12-19T08:09:06.571Z,91.60
2018-12-19T08:09:48.811Z,91.60
2018-12-19T08:10:28.181Z,91.60
2018-12-19T08:11:07.568Z,91.50
2018-12-19T08:11:47.932Z,91.20
2018-12-19T08:12:27.132Z,91.60
2018-12-19T08:13:06.232Z,91.20
2018-12-19T08:13:45.470Z,91.10
2018-12-19T08:14:25.491Z,91.00
2018-12-19T08:15:07.051Z,91.20
2018-12-19T08:15:46.414Z,91.20
2018-12-19T08:16:30.772Z,91.30
2018-12-19T08:17:10.207Z,91.20
2018-12-19T08:17:49.655Z,91.40
2018-12-19T08:18:34.172Z,91.40
2018-12-19T08:19:13.161Z,91.40
2018-12-19T08:19:52.748Z,91.40
2018-12-19T08:20:32.204Z,91.60
2018-12-19T08:21:12.950Z,91.50
2018-12-19T08:21:52.276Z,91.50
2018-12-19T08:22:31.600Z,91.50
2018-12-19T08:23:11.218Z,91.50
2018-12-19T08:23:51.273Z,91.50
2018-12-19T08:24:31.515Z,91.50
2018-12-19T08:25:15.963Z,91.40
2018-12-19T08:25:55.188Z,91.50
2018-12-19T08:26:35.738Z,91.50
2018-12-19T08:27:17.084Z,91.60
2018-12-19T08:27:56.889Z,91.60
2018-12-19T08:28:38.334Z,91.40
2018-12-19T08:29:18.502Z,91.50
2018-12-19T08:30:00.940Z,91.70
2018-12-19T08:30:41.484Z,91.70
2018-12-19T08:31:22.004Z,91.70
2018-12-19T08:32:01.458Z,91.70
2018-12-19T08:32:40.722Z,91.90
2018-12-19T08:33:22.342Z,91.80
2018-12-19T08:34:02.034Z,91.80
2018-12-19T08:34:43.998Z,91.80
2018-12-19T08:35:23.835Z,91.90
2018-12-19T08:36:05.973Z,92.00
2018-12-19T08:36:46.444Z,91.90
2018-12-19T08:37:28.527Z,92.00